createdAt,value
2023-02-19T00:01:38.162Z,91119.28
2023-02-19T00:04:11.273Z,91116.66
2023-02-19T00:06:37.671Z,91105.19
2023-02-19T00:09:04.211Z,91085.41
2023-02-19T00:11:32.001Z,91068.22
2023-02-19T00:13:59.115Z,91064.03
2023-02-19T00:16:36.017Z,91084.34
2023-02-19T00:19:04.316Z,91086.44
2023-02-19T00:21:30.925Z,91067.16
2023-02-19T00:24:04.804Z,91035.91
2023-02-19T00:26:31.245Z,91000.72
2023-02-19T00:28:57.667Z,90993.44
2023-02-19T00:31:25.825Z,90965.03
2023-02-19T00:33:56.745Z,90927.81
2023-02-19T00:36:23.272Z,90909.84
2023-02-19T00:38:49.793Z,90887.44
2023-02-19T00:41:19.532Z,90851.25
2023-02-19T00:44:00.050Z,90804.13
2023-02-19T00:46:28.358Z,90785.88
2023-02-19T00:48:55.197Z,90752.03
2023-02-19T00:51:22.851Z,90722.31
2023-02-19T00:53:49.249Z,90687.94
2023-02-19T00:56:15.672Z,90663.47
2023-02-19T00:58:42.230Z,90630.13
2023-02-19T01:01:09.208Z,90617.63
2023-02-19T01:03:35.885Z,90603.03
2023-02-19T01:06:02.723Z,90587.13
2023-02-19T01:08:30.899Z,90599.88
2023-02-19T01:10:57.922Z,90593.63
2023-02-19T01:13:24.538Z,90610.81
2023-02-19T01:15:50.984Z,90626.19
2023-02-19T01:18:17.471Z,90645.69
2023-02-19T01:20:44.942Z,90670.16
2023-02-19T01:23:11.992Z,90703.25
2023-02-19T01:25:39.621Z,90747.25
2023-02-19T01:28:06.576Z,90804.03
2023-02-19T01:30:37.068Z,90849.84
2023-02-19T01:33:07.295Z,90904.56
2023-02-19T01:35:33.779Z,90942.63
2023-02-19T01:38:00.299Z,90970.22
2023-02-19T01:40:26.969Z,90994.72
2023-02-19T01:42:53.310Z,91017.38
2023-02-19T01:45:30.314Z,91029.63
2023-02-19T01:48:00.872Z,91028.06
2023-02-19T01:50:28.801Z,90994.47
2023-02-19T01:52:55.502Z,90930.66
2023-02-19T01:55:21.924Z,90846.78
2023-02-19T01:57:48.646Z,90746.25
2023-02-19T02:00:16.529Z,90656.09
2023-02-19T02:02:44.485Z,90567.53
2023-02-19T02:05:24.452Z,90453.53
2023-02-19T02:08:09.364Z,90350.38
2023-02-19T02:10:35.753Z,89866.56
2023-02-19T02:13:02.143Z,88531.63
2023-02-19T02:15:34.731Z,87679.44
2023-02-19T02:18:42.519Z,87025.91
2023-02-19T02:21:18.239Z,86669.09
2023-02-19T02:24:03.323Z,86486.25
2023-02-19T02:26:49.955Z,86344.28
2023-02-19T02:30:04.768Z,86236.50
2023-02-19T02:32:33.686Z,86124.28
2023-02-19T02:35:03.816Z,86116.88
2023-02-19T02:37:30.753Z,86109.44
2023-02-19T02:39:58.148Z,86111.69
2023-02-19T02:42:27.421Z,86145.91
2023-02-19T02:45:13.176Z,86171.56
2023-02-19T02:47:53.547Z,86159.31
2023-02-19T02:50:26.381Z,86186.09
2023-02-19T02:53:14.437Z,86208.03
2023-02-19T02:55:44.422Z,86178.28
2023-02-19T02:58:14.640Z,86184.63
2023-02-19T03:01:00.447Z,86180.91
2023-02-19T03:03:26.828Z,86189.44
2023-02-19T03:05:55.077Z,86207.31
2023-02-19T03:08:45.828Z,86234.41
2023-02-19T03:11:30.650Z,86250.75
2023-02-19T03:14:19.087Z,86282.00
2023-02-19T03:17:04.110Z,86360.00
2023-02-19T03:19:31.569Z,86406.44
2023-02-19T03:22:09.753Z,86456.56
2023-02-19T03:24:57.296Z,86506.34
2023-02-19T03:27:23.651Z,86565.78
2023-02-19T03:29:50.150Z,86611.13
2023-02-19T03:32:28.920Z,86680.97
2023-02-19T03:35:06.365Z,86856.91
2023-02-19T03:37:35.554Z,87015.59
2023-02-19T03:40:01.928Z,87126.09
2023-02-19T03:42:28.271Z,87248.75
2023-02-19T03:45:13.033Z,87365.38
2023-02-19T03:48:19.462Z,87448.94
2023-02-19T03:50:50.668Z,87540.44
2023-02-19T03:53:51.820Z,87636.25
2023-02-19T03:56:39.189Z,87758.91
2023-02-19T03:59:10.187Z,87853.81
2023-02-19T04:01:41.495Z,87900.81
2023-02-19T04:04:22.695Z,87926.75
2023-02-19T04:06:52.838Z,87977.06
2023-02-19T04:09:19.374Z,88039.00
2023-02-19T04:11:45.757Z,88112.06
2023-02-19T04:14:18.375Z,88197.59
2023-02-19T04:16:47.251Z,88218.97
2023-02-19T04:19:14.713Z,88306.47
2023-02-19T04:21:41.101Z,88305.97
2023-02-19T04:24:11.412Z,88345.78
2023-02-19T04:26:37.763Z,88391.41
2023-02-19T04:29:04.239Z,88443.91
2023-02-19T04:31:30.660Z,88471.94
2023-02-19T04:33:57.133Z,88499.38
2023-02-19T04:36:23.673Z,88566.34
2023-02-19T04:38:50.034Z,88618.66
2023-02-19T04:41:16.370Z,88632.06
2023-02-19T04:43:42.755Z,88618.94
2023-02-19T04:46:09.158Z,88702.31
2023-02-19T04:48:35.516Z,88727.16
2023-02-19T04:51:06.470Z,88789.63
2023-02-19T04:53:33.188Z,88840.81
2023-02-19T04:56:09.201Z,88858.19
2023-02-19T04:58:35.646Z,88893.22
2023-02-19T05:01:02.041Z,88880.31
2023-02-19T05:03:28.515Z,88889.00
2023-02-19T05:05:54.875Z,88906.66
2023-02-19T05:08:21.252Z,88886.16
2023-02-19T05:10:47.794Z,88913.72
2023-02-19T05:13:14.202Z,88968.25
2023-02-19T05:15:40.647Z,88977.25
2023-02-19T05:18:07.126Z,89013.94
2023-02-19T05:20:33.450Z,89063.88
2023-02-19T05:22:59.788Z,89055.25
2023-02-19T05:25:26.237Z,89088.75
2023-02-19T05:28:12.563Z,89145.19
2023-02-19T05:30:38.958Z,89153.13
2023-02-19T05:33:05.360Z,89225.88
2023-02-19T05:35:31.817Z,89259.03
2023-02-19T05:37:58.231Z,89283.41
2023-02-19T05:40:24.595Z,89350.94
2023-02-19T05:42:50.949Z,89375.28
2023-02-19T05:45:17.334Z,89404.06
2023-02-19T05:47:43.680Z,89481.66
2023-02-19T05:50:10.058Z,89589.13
2023-02-19T05:52:36.634Z,89642.19
2023-02-19T05:55:03.072Z,89706.16
2023-02-19T05:57:29.536Z,89751.75
2023-02-19T05:59:56.658Z,89792.66
2023-02-19T06:02:23.125Z,89827.31
2023-02-19T06:04:49.541Z,89878.06
2023-02-19T06:07:16.168Z,89949.78
2023-02-19T06:09:42.517Z,90017.06
2023-02-19T06:12:08.872Z,90040.34
2023-02-19T06:14:35.402Z,90091.31
2023-02-19T06:17:01.801Z,90135.28
2023-02-19T06:19:28.143Z,90150.28
2023-02-19T06:21:54.517Z,90208.50
2023-02-19T06:24:20.873Z,90301.34
2023-02-19T06:26:47.248Z,90362.38
2023-02-19T06:29:13.661Z,90399.13
2023-02-19T06:31:40.178Z,90431.69
2023-02-19T06:34:06.637Z,90526.28
2023-02-19T06:36:33.086Z,90550.06
2023-02-19T06:39:00.350Z,90615.22
2023-02-19T06:41:26.739Z,90658.34
2023-02-19T06:43:53.155Z,90693.28
2023-02-19T06:46:19.503Z,90753.97
2023-02-19T06:48:45.944Z,90788.41
2023-02-19T06:51:18.673Z,90824.59
2023-02-19T06:53:45.748Z,90867.53
2023-02-19T06:56:34.202Z,90907.34
2023-02-19T06:59:02.461Z,90954.97
2023-02-19T07:01:29.785Z,91013.09
2023-02-19T07:03:56.336Z,91044.94
2023-02-19T07:06:23.534Z,91050.81
2023-02-19T07:08:50.095Z,91100.94
2023-02-19T07:11:16.976Z,91150.09
2023-02-19T07:13:43.333Z,91153.84
2023-02-19T07:16:10.900Z,91193.69
2023-02-19T07:18:37.569Z,91206.69
2023-02-19T07:21:04.507Z,91235.72
2023-02-19T07:23:30.939Z,91322.38
2023-02-19T07:25:57.403Z,91386.03
2023-02-19T07:28:23.897Z,91389.34
2023-02-19T07:30:50.278Z,91457.09
2023-02-19T07:33:16.924Z,91499.34
2023-02-19T07:35:50.038Z,91581.03
2023-02-19T07:38:17.451Z,91646.50
2023-02-19T07:40:56.964Z,91763.69
2023-02-19T07:43:24.416Z,91849.59
2023-02-19T07:45:50.894Z,91931.38
2023-02-19T07:48:17.496Z,92038.72
2023-02-19T07:50:54.278Z,92107.16
2023-02-19T07:53:20.932Z,92173.00
2023-02-19T07:55:47.304Z,92279.53
2023-02-19T07:58:13.891Z,92309.72
2023-02-19T08:00:40.264Z,92402.06
2023-02-19T08:03:06.803Z,92446.84
2023-02-19T08:05:40.899Z,92446.59
2023-02-19T08:08:08.279Z,92482.03
2023-02-19T08:10:53.387Z,92508.72
2023-02-19T08:13:19.812Z,92555.69
2023-02-19T08:15:46.554Z,92609.44
2023-02-19T08:18:14.095Z,92652.03
2023-02-19T08:20:40.720Z,92690.69
2023-02-19T08:23:07.212Z,92741.25
2023-02-19T08:25:33.804Z,92764.75
2023-02-19T08:28:00.368Z,92796.81
2023-02-19T08:30:27.893Z,92776.31
2023-02-19T08:32:54.796Z,92850.63
2023-02-19T08:35:21.178Z,92891.03
2023-02-19T08:37:47.520Z,92896.06
2023-02-19T08:40:14.068Z,92931.88
2023-02-19T08:42:40.430Z,92905.84
2023-02-19T08:45:07.207Z,92899.69
2023-02-19T08:47:36.928Z,92901.47
2023-02-19T08:50:05.032Z,92922.97
2023-02-19T08:52:31.656Z,92934.56
2023-02-19T08:54:58.280Z,92972.03
2023-02-19T08:57:25.109Z,92973.28
2023-02-19T08:59:51.451Z,92968.31
2023-02-19T09:02:17.896Z,92986.06
2023-02-19T09:04:44.243Z,93018.13
2023-02-19T09:07:11.665Z,93067.59
2023-02-19T09:09:38.194Z,93091.38
2023-02-19T09:12:05.904Z,93118.88
2023-02-19T09:14:33.566Z,93132.44
2023-02-19T09:17:00.826Z,93181.69
2023-02-19T09:19:27.684Z,93317.75
2023-02-19T09:21:54.241Z,93423.63
2023-02-19T09:24:20.769Z,93524.69
2023-02-19T09:26:51.101Z,93589.31
2023-02-19T09:29:17.679Z,93637.84
2023-02-19T09:31:47.556Z,93695.88
2023-02-19T09:34:13.967Z,93787.88
2023-02-19T09:36:40.309Z,93846.19
2023-02-19T09:39:08.186Z,93888.97
2023-02-19T09:41:36.749Z,93957.34
2023-02-19T09:44:04.862Z,94016.31
2023-02-19T09:46:46.472Z,94121.56
2023-02-19T09:49:17.078Z,94189.44
2023-02-19T09:51:46.055Z,94211.00
2023-02-19T09:54:20.017Z,94231.56
2023-02-19T09:56:46.425Z,94309.38
2023-02-19T09:59:21.098Z,94381.56
2023-02-19T10:01:48.137Z,94490.66
2023-02-19T10:04:14.512Z,94565.22
2023-02-19T10:06:40.886Z,94598.97
2023-02-19T10:09:23.568Z,94565.44
2023-02-19T10:11:50.048Z,94560.13
2023-02-19T10:14:19.209Z,94627.28
2023-02-19T10:16:45.931Z,94721.84
2023-02-19T10:19:12.705Z,94748.97
2023-02-19T10:21:39.069Z,94784.38
2023-02-19T10:24:05.994Z,94889.47
2023-02-19T10:26:35.496Z,94996.84
2023-02-19T10:29:05.247Z,95021.13
2023-02-19T10:31:32.621Z,95123.03
2023-02-19T10:34:03.261Z,95168.59
2023-02-19T10:36:40.041Z,95245.44
2023-02-19T10:39:31.772Z,95303.78
2023-02-19T10:41:58.762Z,95345.34
2023-02-19T10:44:27.363Z,95466.28
2023-02-19T10:46:58.014Z,95566.06
2023-02-19T10:49:24.516Z,95644.50
2023-02-19T10:51:51.004Z,95671.84
2023-02-19T10:54:28.982Z,95686.75
2023-02-19T10:57:07.269Z,95807.63
2023-02-19T10:59:33.849Z,95815.69
2023-02-19T11:02:01.782Z,95825.88
2023-02-19T11:04:35.279Z,95932.97
2023-02-19T11:07:13.863Z,96044.72
2023-02-19T11:09:41.640Z,96198.34
2023-02-19T11:12:09.542Z,96258.94
2023-02-19T11:14:36.073Z,96356.41
2023-02-19T11:17:04.768Z,96392.47
2023-02-19T11:19:43.688Z,96518.84
2023-02-19T11:22:29.919Z,96592.47
2023-02-19T11:24:59.331Z,96614.47
2023-02-19T11:27:25.964Z,96570.31
2023-02-19T11:29:52.466Z,96544.59
2023-02-19T11:32:34.655Z,96546.28
2023-02-19T11:35:18.360Z,96540.09
2023-02-19T11:37:53.912Z,96656.59
2023-02-19T11:40:21.400Z,96741.50
2023-02-19T11:43:02.382Z,96796.97
2023-02-19T11:45:44.958Z,96777.75
2023-02-19T11:48:30.315Z,96820.22
2023-02-19T11:51:23.785Z,96903.03
2023-02-19T11:54:06.739Z,96967.75
2023-02-19T11:56:36.168Z,97015.41
2023-02-19T11:59:28.846Z,97065.03
2023-02-19T12:02:05.308Z,97104.69
2023-02-19T12:04:37.982Z,97024.13
2023-02-19T12:07:25.991Z,96987.44
2023-02-19T12:10:01.325Z,97123.97
2023-02-19T12:12:38.092Z,97248.00
2023-02-19T12:15:22.761Z,97307.66
2023-02-19T12:17:49.162Z,97225.72
2023-02-19T12:20:19.606Z,97231.97
2023-02-19T12:22:58.159Z,97220.25
2023-02-19T12:25:45.933Z,97215.53
2023-02-19T12:28:17.116Z,97219.84
2023-02-19T12:30:59.486Z,97221.94
2023-02-19T12:33:30.831Z,97234.97
2023-02-19T12:36:00.157Z,97161.72
2023-02-19T12:38:38.870Z,97121.59
2023-02-19T12:41:29.683Z,97111.22
2023-02-19T12:44:05.295Z,97094.03
2023-02-19T12:46:53.033Z,97170.66
2023-02-19T12:49:31.777Z,97268.59
2023-02-19T12:52:00.558Z,97317.13
2023-02-19T12:54:41.649Z,97241.69
2023-02-19T12:57:20.733Z,97266.00
2023-02-19T12:59:51.083Z,97217.66
2023-02-19T13:02:26.708Z,97260.03
2023-02-19T13:05:02.300Z,97273.34
2023-02-19T13:07:33.851Z,97347.66
2023-02-19T13:10:26.886Z,97465.19
2023-02-19T13:12:53.258Z,97461.84
2023-02-19T13:15:35.854Z,97431.78
2023-02-19T13:18:02.829Z,97542.75
2023-02-19T13:20:36.962Z,97570.09
2023-02-19T13:23:42.217Z,97598.00
2023-02-19T13:26:30.449Z,97520.72
2023-02-19T13:29:21.004Z,97554.97
2023-02-19T13:32:06.366Z,97509.66
2023-02-19T13:34:57.417Z,97542.66
2023-02-19T13:37:23.854Z,97517.81
2023-02-19T13:39:54.334Z,97541.09
2023-02-19T13:42:28.789Z,97594.56
2023-02-19T13:44:57.893Z,97606.09
2023-02-19T13:47:59.246Z,97679.34
2023-02-19T13:50:27.550Z,97636.63
2023-02-19T13:52:57.844Z,97678.09
2023-02-19T13:55:42.728Z,97773.81
2023-02-19T13:58:33.880Z,97651.59
2023-02-19T14:01:01.672Z,97685.59
2023-02-19T14:03:28.775Z,97655.69
2023-02-19T14:05:58.952Z,97617.88
2023-02-19T14:08:48.709Z,97716.69
2023-02-19T14:11:16.040Z,97856.19
2023-02-19T14:13:51.665Z,97877.28
2023-02-19T14:16:30.229Z,97903.72
2023-02-19T14:18:56.600Z,97906.69
2023-02-19T14:21:27.901Z,97928.97
2023-02-19T14:23:57.456Z,97881.91
2023-02-19T14:26:25.226Z,97852.09
2023-02-19T14:28:52.046Z,97911.19
2023-02-19T14:31:25.214Z,97864.78
2023-02-19T14:34:03.357Z,97842.44
2023-02-19T14:36:29.753Z,97848.47
2023-02-19T14:39:16.299Z,97917.69
2023-02-19T14:41:45.851Z,97951.19
2023-02-19T14:44:29.649Z,97926.22
2023-02-19T14:47:00.593Z,97884.41
2023-02-19T14:49:31.391Z,97834.22
2023-02-19T14:51:59.724Z,97891.19
2023-02-19T14:54:53.485Z,97868.50
2023-02-19T14:57:25.375Z,97925.84
2023-02-19T14:59:58.402Z,97896.41
2023-02-19T15:02:25.964Z,97924.25
2023-02-19T15:04:52.654Z,97885.97
2023-02-19T15:07:30.322Z,97917.09
2023-02-19T15:10:02.933Z,97882.81
2023-02-19T15:12:34.720Z,97929.72
2023-02-19T15:15:02.758Z,97951.84
2023-02-19T15:17:33.655Z,97888.72
2023-02-19T15:20:03.263Z,97815.19
2023-02-19T15:22:31.790Z,97750.59
2023-02-19T15:25:02.492Z,97731.63
2023-02-19T15:27:29.162Z,97762.88
2023-02-19T15:29:55.509Z,97789.50
2023-02-19T15:32:23.934Z,97832.31
2023-02-19T15:35:03.465Z,97805.84
2023-02-19T15:37:33.688Z,97811.84
2023-02-19T15:40:03.293Z,97733.00
2023-02-19T15:42:30.630Z,97819.41
2023-02-19T15:44:58.875Z,97881.28
2023-02-19T15:47:38.458Z,97868.53
2023-02-19T15:50:11.396Z,97908.88
2023-02-19T15:52:43.351Z,97907.34
2023-02-19T15:55:29.923Z,97872.75
2023-02-19T15:58:09.029Z,97874.59
2023-02-19T16:00:46.183Z,97848.63
2023-02-19T16:03:18.194Z,97781.22
2023-02-19T16:05:44.700Z,97802.97
2023-02-19T16:08:11.043Z,97806.47
2023-02-19T16:10:37.718Z,97754.94
2023-02-19T16:13:04.830Z,97685.19
2023-02-19T16:15:31.877Z,97701.00
2023-02-19T16:17:58.532Z,97691.63
2023-02-19T16:20:29.709Z,97664.25
2023-02-19T16:23:01.778Z,97654.88
2023-02-19T16:25:48.405Z,97617.13
2023-02-19T16:28:22.146Z,97606.34
2023-02-19T16:31:18.036Z,97579.75
2023-02-19T16:33:48.692Z,97530.88
2023-02-19T16:36:33.338Z,97499.66
2023-02-19T16:39:06.755Z,97500.00
2023-02-19T16:41:39.309Z,97508.56
2023-02-19T16:44:21.055Z,97527.69
2023-02-19T16:46:48.555Z,97539.75
2023-02-19T16:49:14.886Z,97548.50
2023-02-19T16:51:41.342Z,97560.72
2023-02-19T16:54:08.849Z,97522.28
2023-02-19T16:56:35.196Z,97509.97
2023-02-19T16:59:01.632Z,97544.69
2023-02-19T17:01:28.009Z,97570.69
2023-02-19T17:03:58.132Z,97592.41
2023-02-19T17:06:24.542Z,97595.28
2023-02-19T17:08:50.884Z,97571.16
2023-02-19T17:11:17.454Z,97557.81
2023-02-19T17:13:45.782Z,97566.50
2023-02-19T17:16:17.410Z,97540.88
2023-02-19T17:18:43.850Z,97500.91
2023-02-19T17:21:17.328Z,97478.72
2023-02-19T17:23:43.728Z,97503.88
2023-02-19T17:26:13.910Z,97503.59
2023-02-19T17:28:41.460Z,97497.59
2023-02-19T17:31:10.001Z,97489.94
2023-02-19T17:33:37.174Z,97470.84
2023-02-19T17:36:03.923Z,97460.44
2023-02-19T17:38:30.303Z,97454.59
2023-02-19T17:40:56.657Z,97427.22
2023-02-19T17:43:25.414Z,97419.63
2023-02-19T17:45:51.961Z,97403.56
2023-02-19T17:48:18.365Z,97399.38
2023-02-19T17:50:44.753Z,97366.53
2023-02-19T17:53:11.148Z,97350.94
2023-02-19T17:55:37.554Z,97323.41
2023-02-19T17:58:04.142Z,97309.78
2023-02-19T18:00:32.113Z,97313.22
2023-02-19T18:02:58.567Z,97309.78
2023-02-19T18:05:24.952Z,97309.22
2023-02-19T18:07:51.306Z,97307.16
2023-02-19T18:10:18.681Z,97307.16
2023-02-19T18:12:45.083Z,97309.03
2023-02-19T18:15:15.914Z,97290.75
2023-02-19T18:17:42.271Z,97303.63
2023-02-19T18:20:12.032Z,97293.25
2023-02-19T18:22:40.904Z,97289.44
2023-02-19T18:25:07.353Z,97280.06
2023-02-19T18:27:33.742Z,97271.91
2023-02-19T18:30:00.402Z,97268.56
2023-02-19T18:32:27.173Z,97260.78
2023-02-19T18:34:57.477Z,97264.28
2023-02-19T18:37:24.608Z,97256.31
2023-02-19T18:39:51.631Z,97254.66
2023-02-19T18:42:18.125Z,97256.50
2023-02-19T18:44:47.362Z,97259.00
2023-02-19T18:47:13.933Z,97265.13
2023-02-19T18:49:40.345Z,97268.72
2023-02-19T18:52:06.744Z,97272.25
2023-02-19T18:54:33.120Z,97285.56
2023-02-19T18:57:03.748Z,97276.13
2023-02-19T18:59:30.784Z,97272.69
2023-02-19T19:01:57.136Z,97267.41
2023-02-19T19:04:23.774Z,97287.66
2023-02-19T19:06:50.209Z,97271.28
2023-02-19T19:09:16.579Z,97278.13
2023-02-19T19:11:44.344Z,97274.63
2023-02-19T19:14:10.773Z,97283.16
2023-02-19T19:16:37.449Z,97295.38
2023-02-19T19:19:04.001Z,97299.81
2023-02-19T19:21:30.627Z,97303.91
2023-02-19T19:23:58.067Z,97308.16
2023-02-19T19:26:24.444Z,97306.44
2023-02-19T19:28:50.837Z,97310.75
2023-02-19T19:31:18.346Z,97317.44
2023-02-19T19:33:46.681Z,97318.97
2023-02-19T19:36:13.706Z,97318.97
2023-02-19T19:38:41.192Z,97318.75
2023-02-19T19:41:07.580Z,97301.53
2023-02-19T19:43:33.937Z,97307.81
2023-02-19T19:46:00.410Z,97315.59
2023-02-19T19:48:27.660Z,97322.44
2023-02-19T19:50:54.448Z,97322.00
2023-02-19T19:53:20.814Z,97324.47
2023-02-19T19:55:47.174Z,97325.03
2023-02-19T19:58:13.511Z,97314.78
2023-02-19T20:00:39.869Z,97314.78
2023-02-19T20:03:06.922Z,97312.06
2023-02-19T20:05:33.270Z,97313.00
2023-02-19T20:07:59.644Z,97299.94
2023-02-19T20:10:26.017Z,97307.06
2023-02-19T20:12:52.396Z,97304.41
2023-02-19T20:15:20.761Z,97296.69
2023-02-19T20:17:47.272Z,97290.50
2023-02-19T20:20:14.049Z,97270.56
2023-02-19T20:22:40.423Z,97268.72
2023-02-19T20:25:06.865Z,97265.22
2023-02-19T20:27:33.235Z,97254.66
2023-02-19T20:29:59.623Z,97258.19
2023-02-19T20:32:26.025Z,97260.03
2023-02-19T20:34:52.448Z,97250.56
2023-02-19T20:37:18.806Z,97257.44
2023-02-19T20:39:45.177Z,97260.03
2023-02-19T20:42:11.607Z,97255.69
2023-02-19T20:44:37.998Z,97260.78
2023-02-19T20:47:04.666Z,97264.47
2023-02-19T20:49:31.322Z,97265.22
2023-02-19T20:51:59.634Z,97253.16
2023-02-19T20:54:30.512Z,97260.19
2023-02-19T20:56:58.375Z,97251.50
2023-02-19T20:59:30.725Z,97248.16
2023-02-19T21:01:58.116Z,97234.44
2023-02-19T21:04:24.696Z,97227.59
2023-02-19T21:06:52.219Z,97224.06
2023-02-19T21:09:19.497Z,97213.84
2023-02-19T21:11:46.160Z,97210.34
2023-02-19T21:14:12.519Z,97199.47
2023-02-19T21:16:38.880Z,97201.44
2023-02-19T21:19:05.236Z,97183.09
2023-02-19T21:21:31.928Z,97179.00
2023-02-19T21:23:58.910Z,97172.34
2023-02-19T21:26:25.405Z,97159.75
2023-02-19T21:28:52.217Z,97151.88
2023-02-19T21:31:19.508Z,97150.84
2023-02-19T21:33:45.999Z,97142.69
2023-02-19T21:36:12.549Z,97142.69
2023-02-19T21:38:39.021Z,97117.84
2023-02-19T21:41:05.401Z,97102.56
2023-02-19T21:43:31.793Z,97099.78
2023-02-19T21:45:58.216Z,97085.25
2023-02-19T21:48:24.632Z,97077.47
2023-02-19T21:50:50.981Z,97060.25
2023-02-19T21:53:17.483Z,97036.72
2023-02-19T21:55:57.391Z,97046.38
2023-02-19T21:58:25.255Z,97037.50
2023-02-19T22:00:53.744Z,97023.59
2023-02-19T22:03:20.267Z,97014.88
2023-02-19T22:05:46.605Z,97012.59
2023-02-19T22:08:15.503Z,97003.50
2023-02-19T22:10:42.451Z,96980.91
2023-02-19T22:13:09.289Z,96979.88
2023-02-19T22:15:35.693Z,96955.44
2023-02-19T22:18:02.103Z,96937.06
2023-02-19T22:20:28.454Z,96910.25
2023-02-19T22:22:54.796Z,96891.69
2023-02-19T22:25:21.327Z,96881.41
2023-02-19T22:27:48.880Z,96853.50
2023-02-19T22:30:16.003Z,96830.81
2023-02-19T22:32:42.519Z,96809.03
2023-02-19T22:35:09.117Z,96798.44
2023-02-19T22:37:35.458Z,96784.56
2023-02-19T22:40:01.896Z,96768.78
2023-02-19T22:42:29.303Z,96748.03
2023-02-19T22:44:55.707Z,96701.16
2023-02-19T22:47:22.108Z,96676.06
2023-02-19T22:49:48.659Z,96654.25
2023-02-19T22:52:15.107Z,96639.50
2023-02-19T22:54:41.476Z,96617.72
2023-02-19T22:57:07.837Z,96596.03
2023-02-19T22:59:34.282Z,96588.25
2023-02-19T23:02:00.876Z,96566.56
2023-02-19T23:04:27.295Z,96561.38
2023-02-19T23:06:53.763Z,96532.72
2023-02-19T23:09:22.085Z,96511.03
2023-02-19T23:11:48.479Z,96499.59
2023-02-19T23:14:19.357Z,96478.84
2023-02-19T23:16:45.839Z,96471.78
2023-02-19T23:19:14.161Z,96459.75
2023-02-19T23:21:41.361Z,96448.31
2023-02-19T23:24:07.833Z,96429.84
2023-02-19T23:26:34.362Z,96427.09
2023-02-19T23:29:00.760Z,96427.72
2023-02-19T23:31:27.326Z,96436.22
2023-02-19T23:33:54.792Z,96437.88
2023-02-19T23:36:23.727Z,96440.38
2023-02-19T23:38:50.340Z,96436.72
2023-02-19T23:41:16.828Z,96444.28
2023-02-19T23:43:43.532Z,96444.88
2023-02-19T23:46:13.226Z,96454.22
2023-02-19T23:48:39.954Z,96452.34
2023-02-19T23:51:06.368Z,96448.59
2023-02-19T23:53:32.945Z,96431.13
2023-02-19T23:55:59.340Z,96439.63
2023-02-19T23:58:25.706Z,96442.94
